createdAt,value
2023-06-06T00:00:23.753Z,12.88
2023-06-06T00:02:27.889Z,12.86
2023-06-06T00:04:30.736Z,12.87
2023-06-06T00:06:36.841Z,12.83
2023-06-06T00:08:42.967Z,12.81
2023-06-06T00:10:46.104Z,12.78
2023-06-06T00:12:49.170Z,12.80
2023-06-06T00:14:51.808Z,12.82
2023-06-06T00:16:57.291Z,12.82
2023-06-06T00:19:00.092Z,12.82
2023-06-06T00:21:02.984Z,12.83
2023-06-06T00:23:07.616Z,12.81
2023-06-06T00:25:10.478Z,12.78
2023-06-06T00:27:13.220Z,12.78
2023-06-06T00:29:15.971Z,12.74
2023-06-06T00:31:18.709Z,12.68
2023-06-06T00:33:21.525Z,12.65
2023-06-06T00:35:24.407Z,12.62
2023-06-06T00:37:27.197Z,12.59
2023-06-06T00:39:29.982Z,12.58
2023-06-06T00:41:32.803Z,12.59
2023-06-06T00:43:35.633Z,12.58
2023-06-06T00:45:38.335Z,12.56
2023-06-06T00:47:41.078Z,12.56
2023-06-06T00:49:47.496Z,12.57
2023-06-06T00:51:50.693Z,12.57
2023-06-06T00:53:58.064Z,12.57
2023-06-06T00:56:01.167Z,12.49
2023-06-06T00:58:05.652Z,12.55
2023-06-06T01:00:09.675Z,12.57
2023-06-06T01:02:15.878Z,12.56
2023-06-06T01:04:18.581Z,12.57
2023-06-06T01:06:23.796Z,12.58
2023-06-06T01:08:26.628Z,12.57
2023-06-06T01:10:29.801Z,12.57
2023-06-06T01:12:57.570Z,12.56
2023-06-06T01:15:09.331Z,12.52
2023-06-06T01:17:14.676Z,12.48
2023-06-06T01:19:21.390Z,12.46
2023-06-06T01:21:27.309Z,12.44
2023-06-06T01:23:31.810Z,12.40
2023-06-06T01:25:36.915Z,12.42
2023-06-06T01:27:40.614Z,12.42
2023-06-06T01:29:43.415Z,12.40
2023-06-06T01:31:57.552Z,12.40
2023-06-06T01:34:16.710Z,12.42
2023-06-06T01:36:34.711Z,12.42
2023-06-06T01:38:45.923Z,12.43
2023-06-06T01:40:52.597Z,12.45
2023-06-06T01:42:56.628Z,12.48
2023-06-06T01:45:00.858Z,12.50
2023-06-06T01:47:04.824Z,12.54
2023-06-06T01:49:09.474Z,12.58
2023-06-06T01:51:12.729Z,12.63
2023-06-06T01:53:15.677Z,12.67
2023-06-06T01:55:18.639Z,12.74
2023-06-06T01:57:21.559Z,12.80
2023-06-06T01:59:24.274Z,12.86
2023-06-06T02:01:27.741Z,12.93
2023-06-06T02:03:30.891Z,12.97
2023-06-06T02:05:33.790Z,13.04
2023-06-06T02:07:38.802Z,13.08
2023-06-06T02:09:43.484Z,13.14
2023-06-06T02:11:46.356Z,13.20
2023-06-06T02:13:49.128Z,13.24
2023-06-06T02:15:52.770Z,13.28
2023-06-06T02:17:56.979Z,13.30
2023-06-06T02:20:00.124Z,13.35
2023-06-06T02:22:03.021Z,13.43
2023-06-06T02:24:06.155Z,13.51
2023-06-06T02:26:09.092Z,13.62
2023-06-06T02:28:12.598Z,13.73
2023-06-06T02:30:15.531Z,13.84
2023-06-06T02:32:18.330Z,13.95
2023-06-06T02:34:22.948Z,14.12
2023-06-06T02:36:26.989Z,14.24
2023-06-06T02:38:29.730Z,14.37
2023-06-06T02:40:32.551Z,14.46
2023-06-06T02:42:36.781Z,14.62
2023-06-06T02:44:39.533Z,14.75
2023-06-06T02:46:43.380Z,14.87
2023-06-06T02:48:48.884Z,15.02
2023-06-06T02:50:51.623Z,15.09
2023-06-06T02:52:55.586Z,15.11
2023-06-06T02:54:58.263Z,15.13
2023-06-06T02:57:02.230Z,15.22
2023-06-06T02:59:04.980Z,15.31
2023-06-06T03:01:08.085Z,15.38
2023-06-06T03:03:10.914Z,15.43
2023-06-06T03:05:14.911Z,15.44
2023-06-06T03:07:21.792Z,15.44
2023-06-06T03:09:25.854Z,15.45
2023-06-06T03:11:31.905Z,15.45
2023-06-06T03:13:34.644Z,15.43
2023-06-06T03:15:37.373Z,15.35
2023-06-06T03:17:41.525Z,15.42
2023-06-06T03:19:45.397Z,15.47
2023-06-06T03:21:48.122Z,15.52
2023-06-06T03:23:51.832Z,15.49
2023-06-06T03:25:54.997Z,15.49
2023-06-06T03:27:57.652Z,15.56
2023-06-06T03:30:03.612Z,15.65
2023-06-06T03:32:09.465Z,15.78
2023-06-06T03:34:12.302Z,15.73
2023-06-06T03:36:16.484Z,15.76
2023-06-06T03:38:19.741Z,15.76
2023-06-06T03:40:27.143Z,15.71
2023-06-06T03:42:30.011Z,15.53
2023-06-06T03:44:32.887Z,15.44
2023-06-06T03:46:36.269Z,15.42
2023-06-06T03:48:38.908Z,15.43
2023-06-06T03:50:42.292Z,15.34
2023-06-06T03:52:45.279Z,15.31
2023-06-06T03:54:48.353Z,15.29
2023-06-06T03:56:51.597Z,15.40
2023-06-06T03:58:54.568Z,15.53
2023-06-06T04:00:59.578Z,15.57
2023-06-06T04:03:02.602Z,15.61
2023-06-06T04:05:06.827Z,15.63
2023-06-06T04:07:09.545Z,15.72
2023-06-06T04:09:14.732Z,15.77
2023-06-06T04:11:17.496Z,15.81
2023-06-06T04:13:20.184Z,15.77
2023-06-06T04:15:23.092Z,15.76
2023-06-06T04:17:26.500Z,15.69
2023-06-06T04:19:29.650Z,15.65
2023-06-06T04:21:33.695Z,15.64
2023-06-06T04:23:37.161Z,15.61
2023-06-06T04:25:39.938Z,15.60
2023-06-06T04:27:43.012Z,15.61
2023-06-06T04:29:46.682Z,15.63
2023-06-06T04:31:49.370Z,15.61
2023-06-06T04:33:58.252Z,15.55
2023-06-06T04:36:01.656Z,15.59
2023-06-06T04:38:04.391Z,15.62
2023-06-06T04:40:08.491Z,15.59
2023-06-06T04:42:11.222Z,15.58
2023-06-06T04:44:15.672Z,15.58
2023-06-06T04:46:23.588Z,15.56
2023-06-06T04:48:27.160Z,15.56
2023-06-06T04:50:30.881Z,15.52
2023-06-06T04:52:35.725Z,15.54
2023-06-06T04:54:40.822Z,15.60
2023-06-06T04:56:45.368Z,15.60
2023-06-06T04:58:49.913Z,15.59
2023-06-06T05:00:52.671Z,15.64
2023-06-06T05:02:56.259Z,15.69
2023-06-06T05:04:59.969Z,15.77
2023-06-06T05:07:02.790Z,15.79
2023-06-06T05:09:06.434Z,15.75
2023-06-06T05:11:09.651Z,15.73
2023-06-06T05:13:12.621Z,15.80
2023-06-06T05:15:15.557Z,15.83
2023-06-06T05:17:21.697Z,15.89
2023-06-06T05:19:25.096Z,15.99
2023-06-06T05:21:27.897Z,16.02
2023-06-06T05:23:30.960Z,16.03
2023-06-06T05:25:33.755Z,16.09
2023-06-06T05:27:36.559Z,16.18
2023-06-06T05:29:39.563Z,16.34
2023-06-06T05:31:42.264Z,16.50
2023-06-06T05:33:45.067Z,16.57
2023-06-06T05:35:51.797Z,16.57
2023-06-06T05:37:54.635Z,16.59
2023-06-06T05:39:57.360Z,16.70
2023-06-06T05:42:00.242Z,16.88
2023-06-06T05:44:02.927Z,17.09
2023-06-06T05:46:06.585Z,17.18
2023-06-06T05:48:09.916Z,17.27
2023-06-06T05:50:12.603Z,17.35
2023-06-06T05:52:15.612Z,17.46
2023-06-06T05:54:18.541Z,17.55
2023-06-06T05:56:22.884Z,17.63
2023-06-06T05:58:25.846Z,17.79
2023-06-06T06:00:30.327Z,17.88
2023-06-06T06:02:33.129Z,17.99
2023-06-06T06:04:36.316Z,17.86
2023-06-06T06:06:39.979Z,17.93
2023-06-06T06:08:45.793Z,18.04
2023-06-06T06:10:48.534Z,18.15
2023-06-06T06:12:51.283Z,18.23
2023-06-06T06:14:54.007Z,18.34
2023-06-06T06:16:56.760Z,18.46
2023-06-06T06:18:59.442Z,18.55
2023-06-06T06:21:02.557Z,18.74
2023-06-06T06:23:05.311Z,18.75
2023-06-06T06:25:14.006Z,18.75
2023-06-06T06:27:18.643Z,18.58
2023-06-06T06:29:22.674Z,18.52
2023-06-06T06:31:25.451Z,18.57
2023-06-06T06:33:28.813Z,18.64
2023-06-06T06:35:31.552Z,18.78
2023-06-06T06:37:38.557Z,18.71
2023-06-06T06:39:41.297Z,18.79
2023-06-06T06:41:43.976Z,19.04
2023-06-06T06:43:46.663Z,19.14
2023-06-06T06:45:49.536Z,19.32
2023-06-06T06:47:52.505Z,19.54
2023-06-06T06:49:55.327Z,19.73
2023-06-06T06:51:59.366Z,19.96
2023-06-06T06:54:02.084Z,20.17
2023-06-06T06:56:06.205Z,20.19
2023-06-06T06:58:08.938Z,20.16
2023-06-06T07:00:16.720Z,20.28
2023-06-06T07:02:21.297Z,20.38
2023-06-06T07:04:24.088Z,20.44
2023-06-06T07:06:28.654Z,20.44
2023-06-06T07:08:31.886Z,20.47
2023-06-06T07:10:35.379Z,20.41
2023-06-06T07:12:38.491Z,20.11
2023-06-06T07:14:41.354Z,19.91
2023-06-06T07:16:44.954Z,19.71
2023-06-06T07:18:48.668Z,19.92
2023-06-06T07:20:52.738Z,20.13
2023-06-06T07:23:01.393Z,20.14
2023-06-06T07:25:05.694Z,20.30
2023-06-06T07:27:10.185Z,20.36
2023-06-06T07:29:13.231Z,20.15
2023-06-06T07:31:16.669Z,20.26
2023-06-06T07:33:19.807Z,20.48
2023-06-06T07:35:22.598Z,20.67
2023-06-06T07:37:25.785Z,20.74
2023-06-06T07:39:28.519Z,20.74
2023-06-06T07:41:31.489Z,20.81
2023-06-06T07:43:34.305Z,20.96
2023-06-06T07:45:37.056Z,21.00
2023-06-06T07:47:43.475Z,21.03
2023-06-06T07:49:47.211Z,21.14
2023-06-06T07:51:50.113Z,20.84
2023-06-06T07:53:53.518Z,20.78
2023-06-06T07:55:56.722Z,20.73
2023-06-06T07:57:59.685Z,20.72
2023-06-06T08:00:08.088Z,20.54
2023-06-06T08:02:12.049Z,20.68
2023-06-06T08:04:14.894Z,20.85
2023-06-06T08:06:19.501Z,20.94
2023-06-06T08:08:22.376Z,20.93
2023-06-06T08:10:25.399Z,21.09
2023-06-06T08:12:28.209Z,21.29
2023-06-06T08:14:34.004Z,21.35
2023-06-06T08:16:39.255Z,21.43
2023-06-06T08:18:42.080Z,21.78
2023-06-06T08:20:44.851Z,21.85
2023-06-06T08:22:51.559Z,21.77
2023-06-06T08:24:54.329Z,21.52
2023-06-06T08:26:57.701Z,21.47
2023-06-06T08:29:00.994Z,21.40
2023-06-06T08:31:05.191Z,21.23
2023-06-06T08:33:08.253Z,21.29
2023-06-06T08:35:11.773Z,21.67
2023-06-06T08:37:15.684Z,21.79
2023-06-06T08:39:21.243Z,21.84
2023-06-06T08:41:26.411Z,21.84
2023-06-06T08:43:29.254Z,21.95
2023-06-06T08:45:36.033Z,22.03
2023-06-06T08:47:39.389Z,22.14
2023-06-06T08:49:42.785Z,22.48
2023-06-06T08:51:48.608Z,22.85
2023-06-06T08:53:52.029Z,23.02
2023-06-06T08:55:58.519Z,23.09
2023-06-06T08:58:02.365Z,22.82
2023-06-06T09:00:12.654Z,22.94
2023-06-06T09:02:16.538Z,22.91
2023-06-06T09:04:21.955Z,22.68
2023-06-06T09:06:24.891Z,22.42
2023-06-06T09:08:27.810Z,21.99
2023-06-06T09:10:30.682Z,21.47
2023-06-06T09:12:47.757Z,21.13
2023-06-06T09:14:50.590Z,21.06
2023-06-06T09:16:54.198Z,20.93
2023-06-06T09:18:58.782Z,20.98
2023-06-06T09:21:01.855Z,20.92
2023-06-06T09:23:05.546Z,20.80
2023-06-06T09:25:24.914Z,21.00
2023-06-06T09:27:31.341Z,21.13
2023-06-06T09:29:40.169Z,21.22
2023-06-06T09:31:43.573Z,21.59
2023-06-06T09:33:49.815Z,21.90
2023-06-06T09:35:52.654Z,22.06
2023-06-06T09:37:55.602Z,22.33
2023-06-06T09:40:18.674Z,22.57
2023-06-06T09:42:23.213Z,22.78
2023-06-06T09:44:29.680Z,22.88
2023-06-06T09:46:37.822Z,23.09
2023-06-06T09:48:40.701Z,23.34
2023-06-06T09:50:43.892Z,23.46
2023-06-06T09:52:50.570Z,23.53
2023-06-06T09:54:57.230Z,23.72
2023-06-06T09:57:01.053Z,23.74
2023-06-06T09:59:05.415Z,23.81
2023-06-06T10:01:08.991Z,23.77
2023-06-06T10:03:17.947Z,23.85
2023-06-06T10:05:22.372Z,23.68
2023-06-06T10:07:27.576Z,23.58
2023-06-06T10:09:31.171Z,23.70
2023-06-06T10:11:36.322Z,23.72
2023-06-06T10:13:39.705Z,23.74
2023-06-06T10:15:43.658Z,23.55
2023-06-06T10:17:47.884Z,23.23
2023-06-06T10:19:56.958Z,23.03
2023-06-06T10:22:02.174Z,23.09
2023-06-06T10:24:05.776Z,23.21
2023-06-06T10:26:14.703Z,23.11
2023-06-06T10:28:27.189Z,23.11
2023-06-06T10:30:59.647Z,23.38
2023-06-06T10:33:20.929Z,23.57
2023-06-06T10:35:25.828Z,23.38
2023-06-06T10:37:28.692Z,23.29
2023-06-06T10:39:31.775Z,23.02
2023-06-06T10:41:54.817Z,22.88
2023-06-06T10:43:57.969Z,22.77
2023-06-06T10:46:01.432Z,22.69
2023-06-06T10:48:04.954Z,22.63
2023-06-06T10:50:13.771Z,22.54
2023-06-06T10:52:16.941Z,22.47
2023-06-06T10:54:28.721Z,22.42
2023-06-06T10:56:34.392Z,22.32
2023-06-06T10:58:40.024Z,22.11
2023-06-06T11:00:45.401Z,22.02
2023-06-06T11:02:49.140Z,21.98
2023-06-06T11:05:01.178Z,21.88
2023-06-06T11:07:17.920Z,21.95
2023-06-06T11:09:29.878Z,22.19
2023-06-06T11:11:33.757Z,22.28
2023-06-06T11:13:37.831Z,22.37
2023-06-06T11:15:57.215Z,22.55
2023-06-06T11:18:06.730Z,22.72
2023-06-06T11:20:18.600Z,22.83
2023-06-06T11:22:26.840Z,22.97
2023-06-06T11:24:34.893Z,23.13
2023-06-06T11:26:38.967Z,23.17
2023-06-06T11:28:42.272Z,23.35
2023-06-06T11:30:45.536Z,23.84
2023-06-06T11:32:48.476Z,24.13
2023-06-06T11:34:51.787Z,24.01
2023-06-06T11:36:55.363Z,23.65
2023-06-06T11:39:02.466Z,23.35
2023-06-06T11:41:06.106Z,23.49
2023-06-06T11:43:08.910Z,23.68
2023-06-06T11:45:15.772Z,24.33
2023-06-06T11:47:19.060Z,25.05
2023-06-06T11:49:23.671Z,25.61
2023-06-06T11:51:27.135Z,25.98
2023-06-06T11:53:36.108Z,26.32
2023-06-06T11:55:39.834Z,26.44
2023-06-06T11:57:42.974Z,26.33
2023-06-06T11:59:54.509Z,26.19
2023-06-06T12:02:00.496Z,25.91
2023-06-06T12:04:08.315Z,26.05
2023-06-06T12:06:11.884Z,26.26
2023-06-06T12:08:14.793Z,26.24
2023-06-06T12:10:43.709Z,26.26
2023-06-06T12:12:46.686Z,26.28
2023-06-06T12:15:00.206Z,25.58
2023-06-06T12:17:09.713Z,25.20
2023-06-06T12:19:16.673Z,24.53
2023-06-06T12:21:19.838Z,23.95
2023-06-06T12:23:29.636Z,23.63
2023-06-06T12:25:32.436Z,23.36
2023-06-06T12:27:37.752Z,23.45
2023-06-06T12:29:52.251Z,23.96
2023-06-06T12:32:24.213Z,23.20
2023-06-06T12:34:45.305Z,22.55
2023-06-06T12:36:53.189Z,22.19
2023-06-06T12:39:04.552Z,21.88
2023-06-06T12:41:08.062Z,21.73
2023-06-06T12:43:10.946Z,21.77
2023-06-06T12:45:14.270Z,21.82
2023-06-06T12:47:18.768Z,21.87
2023-06-06T12:49:21.734Z,21.81
2023-06-06T12:51:24.621Z,21.86
2023-06-06T12:53:28.225Z,21.91
2023-06-06T12:55:31.326Z,22.12
2023-06-06T12:57:34.152Z,22.14
2023-06-06T12:59:40.593Z,22.14
2023-06-06T13:01:43.797Z,21.93
2023-06-06T13:03:46.873Z,21.59
2023-06-06T13:05:52.235Z,21.46
2023-06-06T13:07:55.012Z,21.55
2023-06-06T13:09:58.018Z,21.33
2023-06-06T13:12:01.096Z,21.18
2023-06-06T13:14:03.994Z,21.04
2023-06-06T13:16:07.084Z,20.90
2023-06-06T13:18:11.000Z,20.93
2023-06-06T13:20:15.518Z,21.00
2023-06-06T13:22:19.448Z,20.93
2023-06-06T13:24:22.539Z,20.92
2023-06-06T13:26:25.875Z,20.90
2023-06-06T13:28:28.637Z,20.93
2023-06-06T13:30:31.690Z,20.94
2023-06-06T13:32:37.779Z,20.80
2023-06-06T13:34:40.749Z,20.80
2023-06-06T13:36:43.572Z,20.95
2023-06-06T13:38:47.054Z,21.20
2023-06-06T13:40:50.578Z,21.31
2023-06-06T13:42:55.798Z,21.31
2023-06-06T13:44:58.739Z,21.09
2023-06-06T13:47:02.388Z,21.30
2023-06-06T13:49:05.557Z,21.39
2023-06-06T13:51:09.228Z,21.88
2023-06-06T13:53:12.033Z,22.05
2023-06-06T13:55:15.413Z,21.62
2023-06-06T13:57:18.492Z,21.13
2023-06-06T13:59:21.705Z,20.84
2023-06-06T14:01:24.577Z,20.61
2023-06-06T14:03:27.601Z,20.37
2023-06-06T14:05:31.092Z,20.24
2023-06-06T14:07:34.665Z,20.11
2023-06-06T14:09:37.821Z,20.03
2023-06-06T14:11:40.588Z,20.01
2023-06-06T14:13:43.400Z,20.03
2023-06-06T14:15:46.217Z,19.97
2023-06-06T14:17:49.034Z,20.03
2023-06-06T14:19:52.393Z,20.02
2023-06-06T14:22:11.505Z,19.96
2023-06-06T14:24:14.723Z,20.04
2023-06-06T14:26:23.732Z,20.06
2023-06-06T14:28:26.611Z,19.97
2023-06-06T14:30:29.416Z,19.91
2023-06-06T14:32:33.598Z,19.82
2023-06-06T14:34:36.951Z,19.76
2023-06-06T14:36:39.664Z,19.74
2023-06-06T14:38:42.474Z,19.70
2023-06-06T14:40:45.510Z,19.68
2023-06-06T14:42:48.199Z,19.88
2023-06-06T14:44:54.455Z,20.14
2023-06-06T14:46:57.413Z,20.08
2023-06-06T14:49:00.266Z,19.90
2023-06-06T14:51:03.047Z,19.92
2023-06-06T14:53:06.002Z,19.81
2023-06-06T14:55:09.316Z,19.69
2023-06-06T14:57:13.194Z,19.59
2023-06-06T14:59:16.173Z,19.60
2023-06-06T15:01:19.389Z,19.50
2023-06-06T15:03:22.490Z,19.36
2023-06-06T15:05:25.756Z,19.32
2023-06-06T15:07:28.602Z,19.28
2023-06-06T15:09:35.935Z,19.22
2023-06-06T15:11:38.916Z,19.08
2023-06-06T15:13:42.043Z,19.08
2023-06-06T15:15:45.148Z,19.01
2023-06-06T15:17:48.408Z,18.94
2023-06-06T15:19:51.277Z,18.84
2023-06-06T15:21:54.320Z,18.79
2023-06-06T15:23:58.938Z,18.77
2023-06-06T15:26:03.417Z,18.73
2023-06-06T15:28:06.654Z,18.74
2023-06-06T15:30:10.801Z,18.68
2023-06-06T15:32:13.897Z,18.64
2023-06-06T15:34:17.044Z,18.54
2023-06-06T15:36:19.829Z,18.50
2023-06-06T15:38:25.249Z,18.44
2023-06-06T15:40:28.785Z,18.36
2023-06-06T15:42:31.551Z,18.35
2023-06-06T15:44:34.574Z,18.37
2023-06-06T15:46:41.023Z,18.40
2023-06-06T15:48:44.099Z,18.41
2023-06-06T15:50:47.143Z,18.46
2023-06-06T15:52:51.582Z,18.48
2023-06-06T15:54:54.794Z,18.46
2023-06-06T15:56:57.947Z,18.46
2023-06-06T15:59:01.609Z,18.36
2023-06-06T16:01:04.414Z,18.24
2023-06-06T16:03:07.293Z,18.24
2023-06-06T16:05:10.899Z,18.25
2023-06-06T16:07:14.653Z,18.21
2023-06-06T16:09:17.580Z,18.16
2023-06-06T16:11:20.922Z,18.11
2023-06-06T16:13:23.772Z,18.09
2023-06-06T16:15:26.643Z,18.07
2023-06-06T16:17:29.637Z,18.05
2023-06-06T16:19:32.956Z,17.99
2023-06-06T16:21:38.500Z,17.92
2023-06-06T16:23:41.624Z,17.92
2023-06-06T16:25:45.723Z,17.88
2023-06-06T16:27:48.513Z,17.87
2023-06-06T16:29:51.313Z,17.85
2023-06-06T16:31:54.089Z,17.81
2023-06-06T16:33:57.196Z,17.81
2023-06-06T16:36:01.139Z,17.77
2023-06-06T16:38:03.918Z,17.82
2023-06-06T16:40:07.434Z,17.79
2023-06-06T16:42:11.232Z,17.85
2023-06-06T16:44:16.383Z,17.87
2023-06-06T16:46:19.203Z,17.85
2023-06-06T16:48:22.004Z,17.87
2023-06-06T16:50:24.934Z,17.86
2023-06-06T16:52:27.817Z,17.88
2023-06-06T16:54:32.079Z,17.87
2023-06-06T16:56:35.125Z,17.84
2023-06-06T16:58:37.989Z,17.75
2023-06-06T17:00:43.235Z,17.69
2023-06-06T17:02:49.901Z,17.63
2023-06-06T17:04:54.456Z,17.58
2023-06-06T17:06:57.867Z,17.56
2023-06-06T17:09:02.318Z,17.51
2023-06-06T17:11:05.262Z,17.45
2023-06-06T17:13:08.153Z,17.39
2023-06-06T17:15:11.876Z,17.37
2023-06-06T17:17:15.440Z,17.31
2023-06-06T17:19:18.761Z,17.27
2023-06-06T17:21:23.082Z,17.24
2023-06-06T17:23:26.454Z,17.27
2023-06-06T17:25:42.060Z,17.27
2023-06-06T17:27:53.025Z,17.19
2023-06-06T17:29:56.239Z,17.14
2023-06-06T17:31:59.478Z,17.08
2023-06-06T17:34:02.447Z,17.10
2023-06-06T17:36:05.882Z,17.09
2023-06-06T17:38:08.864Z,17.09
2023-06-06T17:40:12.878Z,17.06
2023-06-06T17:42:17.363Z,17.03
2023-06-06T17:44:20.416Z,17.00
2023-06-06T17:46:23.214Z,17.00
2023-06-06T17:48:26.493Z,16.93
2023-06-06T17:50:30.041Z,16.93
2023-06-06T17:52:32.996Z,16.90
2023-06-06T17:54:36.072Z,16.89
2023-06-06T17:56:38.855Z,16.87
2023-06-06T17:58:41.926Z,16.86
2023-06-06T18:00:44.704Z,16.86
2023-06-06T18:02:47.693Z,16.80
2023-06-06T18:04:50.741Z,16.76
2023-06-06T18:06:54.232Z,16.66
2023-06-06T18:08:57.232Z,16.61
2023-06-06T18:11:00.234Z,16.58
2023-06-06T18:13:05.230Z,16.56
2023-06-06T18:15:09.061Z,16.52
2023-06-06T18:17:11.855Z,16.48
2023-06-06T18:19:14.898Z,16.38
2023-06-06T18:21:18.928Z,16.37
2023-06-06T18:23:23.722Z,16.30
2023-06-06T18:25:26.987Z,16.27
2023-06-06T18:27:29.736Z,16.22
2023-06-06T18:29:32.564Z,16.18
2023-06-06T18:31:38.808Z,16.16
2023-06-06T18:33:42.531Z,16.14
2023-06-06T18:35:45.772Z,16.12
2023-06-06T18:37:48.663Z,16.12
2023-06-06T18:39:53.356Z,16.12
2023-06-06T18:41:56.111Z,16.09
2023-06-06T18:43:58.905Z,16.02
2023-06-06T18:46:01.794Z,16.01
2023-06-06T18:48:05.903Z,15.95
2023-06-06T18:50:09.066Z,15.94
2023-06-06T18:52:12.909Z,15.88
2023-06-06T18:54:15.924Z,15.86
2023-06-06T18:56:19.212Z,15.84
2023-06-06T18:58:21.944Z,15.83
2023-06-06T19:00:24.714Z,15.84
2023-06-06T19:02:27.522Z,15.79
2023-06-06T19:04:30.342Z,15.77
2023-06-06T19:06:33.127Z,15.76
2023-06-06T19:08:36.318Z,15.74
2023-06-06T19:10:39.170Z,15.76
2023-06-06T19:14:47.569Z,15.70
2023-06-06T19:16:50.614Z,15.68
2023-06-06T19:18:53.554Z,15.63
2023-06-06T19:20:56.620Z,15.58
2023-06-06T19:22:59.705Z,15.54
2023-06-06T19:25:02.619Z,15.47
2023-06-06T19:27:06.395Z,15.42
2023-06-06T19:29:09.181Z,15.37
2023-06-06T19:31:13.763Z,15.31
2023-06-06T19:33:18.429Z,15.27
2023-06-06T19:35:22.181Z,15.25
2023-06-06T19:37:25.026Z,15.20
2023-06-06T19:39:27.867Z,15.18
2023-06-06T19:41:31.097Z,15.15
2023-06-06T19:43:33.897Z,15.12
2023-06-06T19:45:36.823Z,15.07
2023-06-06T19:47:39.620Z,15.02
2023-06-06T19:49:42.799Z,14.98
2023-06-06T19:51:46.874Z,14.95
2023-06-06T19:53:50.403Z,14.93
2023-06-06T19:55:53.252Z,14.91
2023-06-06T19:57:56.152Z,14.91
2023-06-06T19:59:58.851Z,14.89
2023-06-06T20:02:02.664Z,14.84
2023-06-06T20:04:05.780Z,14.83
2023-06-06T20:06:10.250Z,14.80
2023-06-06T20:08:13.041Z,14.77
2023-06-06T20:10:16.076Z,14.77
2023-06-06T20:12:19.073Z,14.74
2023-06-06T20:14:22.571Z,14.70
2023-06-06T20:16:25.342Z,14.66
2023-06-06T20:18:28.144Z,14.63
2023-06-06T20:20:30.829Z,14.60
2023-06-06T20:22:33.877Z,14.59
2023-06-06T20:24:36.740Z,14.57
2023-06-06T20:26:39.549Z,14.58
2023-06-06T20:28:43.472Z,14.62
2023-06-06T20:30:48.358Z,14.60
2023-06-06T20:32:51.795Z,14.56
2023-06-06T20:34:54.600Z,14.56
2023-06-06T20:36:58.968Z,14.54
2023-06-06T20:39:01.910Z,14.53
2023-06-06T20:41:04.695Z,14.50
2023-06-06T20:43:07.530Z,14.48
2023-06-06T20:45:10.785Z,14.42
2023-06-06T20:47:16.669Z,14.35
2023-06-06T20:49:19.603Z,14.33
2023-06-06T20:51:22.531Z,14.29
2023-06-06T20:53:25.531Z,14.26
2023-06-06T20:55:28.405Z,14.23
2023-06-06T20:57:31.317Z,14.20
2023-06-06T20:59:34.217Z,14.15
2023-06-06T21:01:37.893Z,14.14
2023-06-06T21:03:41.031Z,14.10
2023-06-06T21:05:43.984Z,14.10
2023-06-06T21:07:47.820Z,14.06
2023-06-06T21:09:50.835Z,14.03
2023-06-06T21:11:54.682Z,14.03
2023-06-06T21:13:57.823Z,14.01
2023-06-06T21:16:02.286Z,13.99
2023-06-06T21:18:05.252Z,13.97
2023-06-06T21:20:09.611Z,13.99
2023-06-06T21:22:12.484Z,13.95
2023-06-06T21:24:15.429Z,13.94
2023-06-06T21:26:18.323Z,13.90
2023-06-06T21:28:21.106Z,13.86
2023-06-06T21:30:23.995Z,13.84
2023-06-06T21:32:26.992Z,13.83
2023-06-06T21:34:29.906Z,13.79
2023-06-06T21:36:32.703Z,13.75
2023-06-06T21:38:35.483Z,13.72
2023-06-06T21:40:38.629Z,13.67
2023-06-06T21:42:41.507Z,13.64
2023-06-06T21:44:44.604Z,13.60
2023-06-06T21:46:47.496Z,13.53
2023-06-06T21:48:50.317Z,13.48
2023-06-06T21:50:53.082Z,13.44
2023-06-06T21:52:56.168Z,13.39
2023-06-06T21:54:58.846Z,13.34
2023-06-06T21:57:01.720Z,13.30
2023-06-06T21:59:05.171Z,13.25
2023-06-06T22:01:08.359Z,13.22
2023-06-06T22:03:11.400Z,13.19
2023-06-06T22:05:14.440Z,13.15
2023-06-06T22:07:17.363Z,13.09
2023-06-06T22:09:20.297Z,13.08
2023-06-06T22:11:23.082Z,13.04
2023-06-06T22:13:26.295Z,13.00
2023-06-06T22:15:29.187Z,12.97
2023-06-06T22:17:32.067Z,12.93
2023-06-06T22:19:34.913Z,12.90
2023-06-06T22:21:37.833Z,12.87
2023-06-06T22:23:41.109Z,12.86
2023-06-06T22:25:51.883Z,12.86
2023-06-06T22:28:01.621Z,12.84
2023-06-06T22:30:06.084Z,12.82
2023-06-06T22:32:11.109Z,12.81
2023-06-06T22:34:14.108Z,12.79
2023-06-06T22:36:17.858Z,12.77
2023-06-06T22:38:20.645Z,12.75
2023-06-06T22:40:25.788Z,12.76
2023-06-06T22:42:29.066Z,12.74
2023-06-06T22:44:32.059Z,12.71
2023-06-06T22:46:34.958Z,12.68
2023-06-06T22:48:37.910Z,12.66
2023-06-06T22:50:40.807Z,12.63
2023-06-06T22:52:44.329Z,12.63
2023-06-06T22:54:47.246Z,12.60
2023-06-06T22:56:50.068Z,12.60
2023-06-06T22:58:53.047Z,12.58
2023-06-06T23:00:55.910Z,12.57
2023-06-06T23:02:58.892Z,12.57
2023-06-06T23:05:02.486Z,12.57
2023-06-06T23:07:10.764Z,12.56
2023-06-06T23:09:13.596Z,12.59
2023-06-06T23:11:16.488Z,12.61
2023-06-06T23:13:19.422Z,12.62
2023-06-06T23:15:23.586Z,12.64
2023-06-06T23:17:26.601Z,12.64
2023-06-06T23:19:29.307Z,12.67
2023-06-06T23:21:32.151Z,12.71
2023-06-06T23:23:34.947Z,12.73
2023-06-06T23:25:37.790Z,12.76
2023-06-06T23:27:41.367Z,12.80
2023-06-06T23:29:44.372Z,12.82
2023-06-06T23:31:47.209Z,12.84
2023-06-06T23:33:50.131Z,12.86
2023-06-06T23:35:53.424Z,12.87
2023-06-06T23:37:56.387Z,12.89
2023-06-06T23:39:59.154Z,12.88
2023-06-06T23:42:01.971Z,12.91
2023-06-06T23:44:05.039Z,12.93
2023-06-06T23:46:07.941Z,12.93
2023-06-06T23:48:10.876Z,12.93
2023-06-06T23:50:13.709Z,12.92
2023-06-06T23:52:16.453Z,12.90
2023-06-06T23:54:19.205Z,12.90
2023-06-06T23:56:22.661Z,12.88
2023-06-06T23:58:25.993Z,12.88
